sensor_id;sensor_type;location;lat;lon;timestamp;temperature;humidity
57132;DHT22;43005;52.922;5.742;2022-08-11T00:00:38;19.00;99.90
57132;DHT22;43005;52.922;5.742;2022-08-11T00:03:06;19.00;99.90
57132;DHT22;43005;52.922;5.742;2022-08-11T00:05:38;19.00;99.90
57132;DHT22;43005;52.922;5.742;2022-08-11T00:08:08;18.90;99.90
57132;DHT22;43005;52.922;5.742;2022-08-11T00:10:35;18.90;99.90
57132;DHT22;43005;52.922;5.742;2022-08-11T00:13:04;18.90;99.90
57132;DHT22;43005;52.922;5.742;2022-08-11T00:15:36;18.90;99.90
57132;DHT22;43005;52.922;5.742;2022-08-11T00:18:04;18.90;99.90
57132;DHT22;43005;52.922;5.742;2022-08-11T00:20:31;18.90;99.90
57132;DHT22;43005;52.922;5.742;2022-08-11T00:23:00;18.90;99.90
57132;DHT22;43005;52.922;5.742;2022-08-11T00:25:27;18.80;99.90
57132;DHT22;43005;52.922;5.742;2022-08-11T00:27:54;18.90;99.90
57132;DHT22;43005;52.922;5.742;2022-08-11T00:30:22;18.90;99.90
57132;DHT22;43005;52.922;5.742;2022-08-11T00:32:52;18.90;99.90
57132;DHT22;43005;52.922;5.742;2022-08-11T00:35:22;18.90;99.90
57132;DHT22;43005;52.922;5.742;2022-08-11T00:37:51;18.90;99.90
57132;DHT22;43005;52.922;5.742;2022-08-11T00:40:22;18.90;99.90
57132;DHT22;43005;52.922;5.742;2022-08-11T00:42:53;18.80;99.90
57132;DHT22;43005;52.922;5.742;2022-08-11T00:45:25;18.90;99.90
57132;DHT22;43005;52.922;5.742;2022-08-11T00:47:55;18.90;99.90
57132;DHT22;43005;52.922;5.742;2022-08-11T00:50:25;18.80;99.90
57132;DHT22;43005;52.922;5.742;2022-08-11T00:53:03;18.80;99.90
57132;DHT22;43005;52.922;5.742;2022-08-11T00:58:51;18.90;99.90
57132;DHT22;43005;52.922;5.742;2022-08-11T01:01:29;18.80;99.90
57132;DHT22;43005;52.922;5.742;2022-08-11T01:04:10;18.80;99.90
57132;DHT22;43005;52.922;5.742;2022-08-11T01:06:45;18.80;99.90
57132;DHT22;43005;52.922;5.742;2022-08-11T01:09:23;18.70;99.90
57132;DHT22;43005;52.922;5.742;2022-08-11T01:26:29;18.60;99.90
57132;DHT22;43005;52.922;5.742;2022-08-11T01:32:01;18.70;99.90
57132;DHT22;43005;52.922;5.742;2022-08-11T01:34:53;18.60;99.90
57132;DHT22;43005;52.922;5.742;2022-08-11T01:40:18;18.60;99.90
57132;DHT22;43005;52.922;5.742;2022-08-11T01:42:58;18.60;99.90
57132;DHT22;43005;52.922;5.742;2022-08-11T01:45:47;18.50;99.90
57132;DHT22;43005;52.922;5.742;2022-08-11T01:48:18;18.50;99.90
57132;DHT22;43005;52.922;5.742;2022-08-11T01:50:55;18.50;99.90
57132;DHT22;43005;52.922;5.742;2022-08-11T01:53:25;18.50;99.90
57132;DHT22;43005;52.922;5.742;2022-08-11T01:55:58;18.50;99.90
57132;DHT22;43005;52.922;5.742;2022-08-11T01:58:28;18.50;99.90
57132;DHT22;43005;52.922;5.742;2022-08-11T02:00:57;18.50;99.90
57132;DHT22;43005;52.922;5.742;2022-08-11T02:03:28;18.50;99.90
57132;DHT22;43005;52.922;5.742;2022-08-11T02:06:08;18.50;99.90
57132;DHT22;43005;52.922;5.742;2022-08-11T02:08:54;18.50;99.90
57132;DHT22;43005;52.922;5.742;2022-08-11T02:11:23;18.50;99.90
57132;DHT22;43005;52.922;5.742;2022-08-11T02:13:57;18.50;99.90
57132;DHT22;43005;52.922;5.742;2022-08-11T02:16:28;18.50;99.90
57132;DHT22;43005;52.922;5.742;2022-08-11T02:19:00;18.40;99.90
57132;DHT22;43005;52.922;5.742;2022-08-11T02:21:51;18.40;99.90
57132;DHT22;43005;52.922;5.742;2022-08-11T02:24:40;18.40;99.90
57132;DHT22;43005;52.922;5.742;2022-08-11T02:27:13;18.40;99.90
57132;DHT22;43005;52.922;5.742;2022-08-11T02:29:42;18.40;99.90
57132;DHT22;43005;52.922;5.742;2022-08-11T02:32:18;18.40;99.90
57132;DHT22;43005;52.922;5.742;2022-08-11T02:35:09;18.40;99.90
57132;DHT22;43005;52.922;5.742;2022-08-11T02:37:45;18.40;99.90
57132;DHT22;43005;52.922;5.742;2022-08-11T02:40:20;18.40;99.90
57132;DHT22;43005;52.922;5.742;2022-08-11T02:42:49;18.40;99.90
57132;DHT22;43005;52.922;5.742;2022-08-11T02:45:27;18.40;99.90
57132;DHT22;43005;52.922;5.742;2022-08-11T02:47:59;18.30;99.90
57132;DHT22;43005;52.922;5.742;2022-08-11T02:50:48;18.30;99.90
57132;DHT22;43005;52.922;5.742;2022-08-11T02:53:19;18.30;99.90
57132;DHT22;43005;52.922;5.742;2022-08-11T02:55:52;18.30;99.90
57132;DHT22;43005;52.922;5.742;2022-08-11T02:58:25;18.30;99.90
57132;DHT22;43005;52.922;5.742;2022-08-11T03:00:56;18.30;99.90
57132;DHT22;43005;52.922;5.742;2022-08-11T03:03:29;18.20;99.90
57132;DHT22;43005;52.922;5.742;2022-08-11T03:06:01;18.20;99.90
57132;DHT22;43005;52.922;5.742;2022-08-11T03:08:39;18.30;99.90
57132;DHT22;43005;52.922;5.742;2022-08-11T03:11:16;18.30;99.90
57132;DHT22;43005;52.922;5.742;2022-08-11T03:14:08;18.20;99.90
57132;DHT22;43005;52.922;5.742;2022-08-11T03:16:54;18.20;99.90
57132;DHT22;43005;52.922;5.742;2022-08-11T03:19:25;18.20;99.90
57132;DHT22;43005;52.922;5.742;2022-08-11T03:24:53;18.20;99.90
57132;DHT22;43005;52.922;5.742;2022-08-11T03:27:25;18.20;99.90
57132;DHT22;43005;52.922;5.742;2022-08-11T03:30:00;18.20;99.90
57132;DHT22;43005;52.922;5.742;2022-08-11T03:32:29;18.20;99.90
57132;DHT22;43005;52.922;5.742;2022-08-11T03:34:58;18.10;99.90
57132;DHT22;43005;52.922;5.742;2022-08-11T03:37:29;18.10;99.90
57132;DHT22;43005;52.922;5.742;2022-08-11T03:40:22;18.10;99.90
57132;DHT22;43005;52.922;5.742;2022-08-11T03:43:10;18.00;99.90
57132;DHT22;43005;52.922;5.742;2022-08-11T03:45:51;17.90;99.90
57132;DHT22;43005;52.922;5.742;2022-08-11T03:48:22;17.90;99.90
57132;DHT22;43005;52.922;5.742;2022-08-11T03:50:55;17.80;99.90
57132;DHT22;43005;52.922;5.742;2022-08-11T03:53:31;17.80;99.90
57132;DHT22;43005;52.922;5.742;2022-08-11T03:56:17;17.80;99.90
57132;DHT22;43005;52.922;5.742;2022-08-11T03:58:56;17.80;99.90
57132;DHT22;43005;52.922;5.742;2022-08-11T04:01:37;17.70;99.90
57132;DHT22;43005;52.922;5.742;2022-08-11T04:04:27;17.70;99.90
57132;DHT22;43005;52.922;5.742;2022-08-11T04:10:01;17.70;99.90
57132;DHT22;43005;52.922;5.742;2022-08-11T04:15:34;17.70;99.90
57132;DHT22;43005;52.922;5.742;2022-08-11T04:18:39;17.70;99.90
57132;DHT22;43005;52.922;5.742;2022-08-11T04:26:55;17.80;99.90
57132;DHT22;43005;52.922;5.742;2022-08-11T04:29:29;17.70;99.90
57132;DHT22;43005;52.922;5.742;2022-08-11T04:32:03;17.70;99.90
57132;DHT22;43005;52.922;5.742;2022-08-11T04:40:05;17.70;99.90
57132;DHT22;43005;52.922;5.742;2022-08-11T04:45:46;17.80;99.90
57132;DHT22;43005;52.922;5.742;2022-08-11T04:48:23;17.80;99.90
57132;DHT22;43005;52.922;5.742;2022-08-11T04:51:21;17.80;99.90
57132;DHT22;43005;52.922;5.742;2022-08-11T04:54:19;17.80;99.90
57132;DHT22;43005;52.922;5.742;2022-08-11T04:57:07;17.80;99.90
57132;DHT22;43005;52.922;5.742;2022-08-11T04:59:57;17.80;99.90
57132;DHT22;43005;52.922;5.742;2022-08-11T05:05:40;17.80;99.90
57132;DHT22;43005;52.922;5.742;2022-08-11T05:11:04;17.90;99.90
57132;DHT22;43005;52.922;5.742;2022-08-11T05:13:33;17.90;99.90
57132;DHT22;43005;52.922;5.742;2022-08-11T05:16:20;18.00;99.90
57132;DHT22;43005;52.922;5.742;2022-08-11T05:19:07;18.00;99.90
57132;DHT22;43005;52.922;5.742;2022-08-11T05:21:59;18.00;99.90
57132;DHT22;43005;52.922;5.742;2022-08-11T05:24:46;18.10;99.90
57132;DHT22;43005;52.922;5.742;2022-08-11T05:27:32;18.20;99.90
57132;DHT22;43005;52.922;5.742;2022-08-11T05:30:16;18.20;99.90
57132;DHT22;43005;52.922;5.742;2022-08-11T05:33:02;18.30;99.90
57132;DHT22;43005;52.922;5.742;2022-08-11T05:35:49;18.30;99.90
57132;DHT22;43005;52.922;5.742;2022-08-11T05:38:23;18.40;99.90
57132;DHT22;43005;52.922;5.742;2022-08-11T05:41:08;18.40;99.90
57132;DHT22;43005;52.922;5.742;2022-08-11T05:43:54;18.50;99.90
57132;DHT22;43005;52.922;5.742;2022-08-11T05:46:40;18.60;99.90
57132;DHT22;43005;52.922;5.742;2022-08-11T05:49:27;18.80;99.90
57132;DHT22;43005;52.922;5.742;2022-08-11T05:52:13;18.90;99.90
57132;DHT22;43005;52.922;5.742;2022-08-11T05:55:01;19.20;99.90
57132;DHT22;43005;52.922;5.742;2022-08-11T05:57:46;19.40;99.90
57132;DHT22;43005;52.922;5.742;2022-08-11T06:00:13;19.70;99.90
57132;DHT22;43005;52.922;5.742;2022-08-11T06:02:41;19.90;99.90
57132;DHT22;43005;52.922;5.742;2022-08-11T06:05:08;20.10;99.90
57132;DHT22;43005;52.922;5.742;2022-08-11T06:07:35;20.30;99.90
57132;DHT22;43005;52.922;5.742;2022-08-11T06:10:04;20.50;99.90
57132;DHT22;43005;52.922;5.742;2022-08-11T06:12:31;20.80;99.90
57132;DHT22;43005;52.922;5.742;2022-08-11T06:15:02;21.00;99.90
57132;DHT22;43005;52.922;5.742;2022-08-11T06:17:30;21.20;99.90
57132;DHT22;43005;52.922;5.742;2022-08-11T06:19:58;21.40;99.90
57132;DHT22;43005;52.922;5.742;2022-08-11T06:22:25;21.70;99.90
57132;DHT22;43005;52.922;5.742;2022-08-11T06:24:55;21.90;99.90
57132;DHT22;43005;52.922;5.742;2022-08-11T06:27:23;22.00;99.90
57132;DHT22;43005;52.922;5.742;2022-08-11T06:29:51;22.10;99.90
57132;DHT22;43005;52.922;5.742;2022-08-11T06:32:19;22.30;99.90
57132;DHT22;43005;52.922;5.742;2022-08-11T06:34:51;22.50;99.90
57132;DHT22;43005;52.922;5.742;2022-08-11T06:37:22;22.70;99.90
57132;DHT22;43005;52.922;5.742;2022-08-11T06:39:53;22.90;99.90
57132;DHT22;43005;52.922;5.742;2022-08-11T06:42:27;23.10;99.90
57132;DHT22;43005;52.922;5.742;2022-08-11T06:45:00;23.30;98.50
57132;DHT22;43005;52.922;5.742;2022-08-11T06:47:29;23.50;95.90
57132;DHT22;43005;52.922;5.742;2022-08-11T06:49:56;23.70;97.20
57132;DHT22;43005;52.922;5.742;2022-08-11T06:52:41;23.90;93.50
57132;DHT22;43005;52.922;5.742;2022-08-11T06:55:09;24.00;91.50
57132;DHT22;43005;52.922;5.742;2022-08-11T06:57:38;24.20;92.80
57132;DHT22;43005;52.922;5.742;2022-08-11T07:00:24;24.20;90.50
57132;DHT22;43005;52.922;5.742;2022-08-11T07:02:56;24.50;90.90
57132;DHT22;43005;52.922;5.742;2022-08-11T07:05:27;24.70;88.80
57132;DHT22;43005;52.922;5.742;2022-08-11T07:08:01;24.90;85.00
57132;DHT22;43005;52.922;5.742;2022-08-11T07:10:54;25.00;84.80
57132;DHT22;43005;52.922;5.742;2022-08-11T07:13:45;25.50;81.00
57132;DHT22;43005;52.922;5.742;2022-08-11T07:16:31;25.90;78.20
57132;DHT22;43005;52.922;5.742;2022-08-11T07:19:00;26.40;72.80
57132;DHT22;43005;52.922;5.742;2022-08-11T07:21:44;26.60;69.40
57132;DHT22;43005;52.922;5.742;2022-08-11T07:24:31;26.80;70.40
57132;DHT22;43005;52.922;5.742;2022-08-11T07:27:16;27.00;66.90
57132;DHT22;43005;52.922;5.742;2022-08-11T07:30:03;27.30;67.70
57132;DHT22;43005;52.922;5.742;2022-08-11T07:32:31;27.90;65.80
57132;DHT22;43005;52.922;5.742;2022-08-11T07:35:01;28.40;62.90
57132;DHT22;43005;52.922;5.742;2022-08-11T07:37:30;28.70;63.20
57132;DHT22;43005;52.922;5.742;2022-08-11T07:39:58;29.40;62.20
57132;DHT22;43005;52.922;5.742;2022-08-11T07:42:28;29.90;60.20
57132;DHT22;43005;52.922;5.742;2022-08-11T07:44:56;30.20;56.70
57132;DHT22;43005;52.922;5.742;2022-08-11T07:47:43;30.00;55.70
57132;DHT22;43005;52.922;5.742;2022-08-11T07:50:28;30.00;57.10
57132;DHT22;43005;52.922;5.742;2022-08-11T07:53:13;29.80;55.20
57132;DHT22;43005;52.922;5.742;2022-08-11T07:55:40;29.50;56.80
57132;DHT22;43005;52.922;5.742;2022-08-11T07:58:07;29.30;55.20
57132;DHT22;43005;52.922;5.742;2022-08-11T08:00:53;28.80;55.30
57132;DHT22;43005;52.922;5.742;2022-08-11T08:03:41;28.50;56.50
57132;DHT22;43005;52.922;5.742;2022-08-11T08:06:25;28.20;56.50
57132;DHT22;43005;52.922;5.742;2022-08-11T08:09:10;28.00;57.40
57132;DHT22;43005;52.922;5.742;2022-08-11T08:11:54;27.90;57.50
57132;DHT22;43005;52.922;5.742;2022-08-11T08:14:39;27.80;57.40
57132;DHT22;43005;52.922;5.742;2022-08-11T08:17:23;27.80;57.90
57132;DHT22;43005;52.922;5.742;2022-08-11T08:20:10;27.90;57.20
57132;DHT22;43005;52.922;5.742;2022-08-11T08:22:37;28.20;57.40
57132;DHT22;43005;52.922;5.742;2022-08-11T08:25:04;28.20;56.80
57132;DHT22;43005;52.922;5.742;2022-08-11T08:27:32;28.30;56.80
57132;DHT22;43005;52.922;5.742;2022-08-11T08:29:59;28.40;55.90
57132;DHT22;43005;52.922;5.742;2022-08-11T08:32:43;28.40;56.30
57132;DHT22;43005;52.922;5.742;2022-08-11T08:35:11;28.40;56.10
57132;DHT22;43005;52.922;5.742;2022-08-11T08:37:38;28.30;55.40
57132;DHT22;43005;52.922;5.742;2022-08-11T08:40:05;28.40;55.80
57132;DHT22;43005;52.922;5.742;2022-08-11T08:42:34;28.60;55.80
57132;DHT22;43005;52.922;5.742;2022-08-11T08:45:04;28.70;55.10
57132;DHT22;43005;52.922;5.742;2022-08-11T08:47:34;28.80;52.50
57132;DHT22;43005;52.922;5.742;2022-08-11T08:50:02;28.70;52.80
57132;DHT22;43005;52.922;5.742;2022-08-11T08:52:33;28.90;52.00
57132;DHT22;43005;52.922;5.742;2022-08-11T08:55:03;29.00;51.20
57132;DHT22;43005;52.922;5.742;2022-08-11T08:57:32;29.00;52.10
57132;DHT22;43005;52.922;5.742;2022-08-11T08:59:58;29.30;52.10
57132;DHT22;43005;52.922;5.742;2022-08-11T09:02:27;29.50;52.10
57132;DHT22;43005;52.922;5.742;2022-08-11T09:04:54;29.60;49.10
57132;DHT22;43005;52.922;5.742;2022-08-11T09:07:21;29.60;49.00
57132;DHT22;43005;52.922;5.742;2022-08-11T09:09:52;29.70;49.30
57132;DHT22;43005;52.922;5.742;2022-08-11T09:12:19;29.90;50.00
57132;DHT22;43005;52.922;5.742;2022-08-11T09:14:48;30.10;49.30
57132;DHT22;43005;52.922;5.742;2022-08-11T09:17:28;30.00;47.90
57132;DHT22;43005;52.922;5.742;2022-08-11T09:19:57;30.00;48.50
57132;DHT22;43005;52.922;5.742;2022-08-11T09:22:24;30.10;48.80
57132;DHT22;43005;52.922;5.742;2022-08-11T09:25:10;30.30;48.60
57132;DHT22;43005;52.922;5.742;2022-08-11T09:27:54;30.40;47.70
57132;DHT22;43005;52.922;5.742;2022-08-11T09:30:22;30.50;46.80
57132;DHT22;43005;52.922;5.742;2022-08-11T09:32:50;30.60;47.30
57132;DHT22;43005;52.922;5.742;2022-08-11T09:35:24;30.70;47.10
57132;DHT22;43005;52.922;5.742;2022-08-11T09:37:52;30.80;46.70
57132;DHT22;43005;52.922;5.742;2022-08-11T09:40:37;30.80;45.30
57132;DHT22;43005;52.922;5.742;2022-08-11T09:43:05;30.90;46.00
57132;DHT22;43005;52.922;5.742;2022-08-11T09:45:50;31.00;45.10
57132;DHT22;43005;52.922;5.742;2022-08-11T09:48:17;31.10;45.10
57132;DHT22;43005;52.922;5.742;2022-08-11T09:50:44;31.20;43.60
57132;DHT22;43005;52.922;5.742;2022-08-11T09:53:13;31.30;42.90
57132;DHT22;43005;52.922;5.742;2022-08-11T09:55:42;31.30;43.50
57132;DHT22;43005;52.922;5.742;2022-08-11T09:58:09;31.50;43.10
57132;DHT22;43005;52.922;5.742;2022-08-11T10:00:38;31.50;42.70
57132;DHT22;43005;52.922;5.742;2022-08-11T10:03:05;31.60;42.40
57132;DHT22;43005;52.922;5.742;2022-08-11T10:05:33;31.60;42.80
57132;DHT22;43005;52.922;5.742;2022-08-11T10:08:17;31.60;42.50
57132;DHT22;43005;52.922;5.742;2022-08-11T10:10:46;31.70;43.10
57132;DHT22;43005;52.922;5.742;2022-08-11T10:13:14;31.80;42.30
57132;DHT22;43005;52.922;5.742;2022-08-11T10:15:42;31.90;41.90
57132;DHT22;43005;52.922;5.742;2022-08-11T10:18:10;32.10;41.40
57132;DHT22;43005;52.922;5.742;2022-08-11T10:20:57;32.20;40.90
57132;DHT22;43005;52.922;5.742;2022-08-11T10:23:25;32.10;39.90
57132;DHT22;43005;52.922;5.742;2022-08-11T10:26:12;31.90;39.80
57132;DHT22;43005;52.922;5.742;2022-08-11T10:28:56;31.90;40.70
57132;DHT22;43005;52.922;5.742;2022-08-11T10:31:23;31.90;40.70
57132;DHT22;43005;52.922;5.742;2022-08-11T10:34:08;32.10;40.40
57132;DHT22;43005;52.922;5.742;2022-08-11T10:36:36;32.20;40.10
57132;DHT22;43005;52.922;5.742;2022-08-11T10:39:08;32.30;39.10
57132;DHT22;43005;52.922;5.742;2022-08-11T10:41:43;32.40;39.00
57132;DHT22;43005;52.922;5.742;2022-08-11T10:44:28;32.60;39.70
57132;DHT22;43005;52.922;5.742;2022-08-11T10:46:59;32.70;39.30
57132;DHT22;43005;52.922;5.742;2022-08-11T10:49:45;32.60;38.30
57132;DHT22;43005;52.922;5.742;2022-08-11T10:52:37;32.70;39.10
57132;DHT22;43005;52.922;5.742;2022-08-11T10:55:23;33.10;39.00
57132;DHT22;43005;52.922;5.742;2022-08-11T10:58:09;33.20;38.90
57132;DHT22;43005;52.922;5.742;2022-08-11T11:00:53;33.30;38.10
57132;DHT22;43005;52.922;5.742;2022-08-11T11:03:23;33.30;37.40
57132;DHT22;43005;52.922;5.742;2022-08-11T11:05:50;33.20;38.20
57132;DHT22;43005;52.922;5.742;2022-08-11T11:08:19;33.30;38.10
57132;DHT22;43005;52.922;5.742;2022-08-11T11:11:04;33.40;37.50
57132;DHT22;43005;52.922;5.742;2022-08-11T11:13:33;33.40;36.70
57132;DHT22;43005;52.922;5.742;2022-08-11T11:16:19;33.40;36.60
57132;DHT22;43005;52.922;5.742;2022-08-11T11:19:04;33.40;36.00
57132;DHT22;43005;52.922;5.742;2022-08-11T11:21:33;33.30;35.70
57132;DHT22;43005;52.922;5.742;2022-08-11T11:24:03;33.40;36.30
57132;DHT22;43005;52.922;5.742;2022-08-11T11:26:36;33.60;35.10
57132;DHT22;43005;52.922;5.742;2022-08-11T11:29:19;33.80;34.80
57132;DHT22;43005;52.922;5.742;2022-08-11T11:31:53;33.70;35.00
57132;DHT22;43005;52.922;5.742;2022-08-11T11:34:28;33.90;35.10
57132;DHT22;43005;52.922;5.742;2022-08-11T11:37:00;34.10;34.60
57132;DHT22;43005;52.922;5.742;2022-08-11T11:39:27;34.20;35.00
57132;DHT22;43005;52.922;5.742;2022-08-11T11:41:56;34.20;34.30
57132;DHT22;43005;52.922;5.742;2022-08-11T11:44:26;34.50;34.20
57132;DHT22;43005;52.922;5.742;2022-08-11T11:46:55;34.60;33.80
57132;DHT22;43005;52.922;5.742;2022-08-11T11:49:23;34.50;33.40
57132;DHT22;43005;52.922;5.742;2022-08-11T11:51:51;34.40;33.20
57132;DHT22;43005;52.922;5.742;2022-08-11T11:54:20;34.50;33.40
57132;DHT22;43005;52.922;5.742;2022-08-11T11:56:48;34.70;33.40
57132;DHT22;43005;52.922;5.742;2022-08-11T11:59:17;34.90;33.60
57132;DHT22;43005;52.922;5.742;2022-08-11T12:02:04;35.10;32.40
57132;DHT22;43005;52.922;5.742;2022-08-11T12:04:31;35.30;31.80
57132;DHT22;43005;52.922;5.742;2022-08-11T12:06:58;35.30;31.60
57132;DHT22;43005;52.922;5.742;2022-08-11T12:09:39;35.30;32.00
57132;DHT22;43005;52.922;5.742;2022-08-11T12:12:07;35.10;32.50
57132;DHT22;43005;52.922;5.742;2022-08-11T12:14:51;35.40;32.60
57132;DHT22;43005;52.922;5.742;2022-08-11T12:17:20;36.00;32.00
57132;DHT22;43005;52.922;5.742;2022-08-11T12:19:47;36.50;31.30
57132;DHT22;43005;52.922;5.742;2022-08-11T12:22:14;36.80;31.00
57132;DHT22;43005;52.922;5.742;2022-08-11T12:24:58;37.00;30.30
57132;DHT22;43005;52.922;5.742;2022-08-11T12:27:43;37.10;30.00
57132;DHT22;43005;52.922;5.742;2022-08-11T12:30:10;37.40;30.30
57132;DHT22;43005;52.922;5.742;2022-08-11T12:32:39;37.60;29.10
57132;DHT22;43005;52.922;5.742;2022-08-11T12:35:08;37.50;29.60
57132;DHT22;43005;52.922;5.742;2022-08-11T12:37:36;37.70;29.30
57132;DHT22;43005;52.922;5.742;2022-08-11T12:40:06;37.80;29.40
57132;DHT22;43005;52.922;5.742;2022-08-11T12:42:52;38.00;29.30
57132;DHT22;43005;52.922;5.742;2022-08-11T12:45:37;38.20;29.30
57132;DHT22;43005;52.922;5.742;2022-08-11T12:48:08;38.60;29.00
57132;DHT22;43005;52.922;5.742;2022-08-11T12:50:55;38.80;28.80
57132;DHT22;43005;52.922;5.742;2022-08-11T12:53:42;38.70;27.80
57132;DHT22;43005;52.922;5.742;2022-08-11T12:56:11;38.70;27.90
57132;DHT22;43005;52.922;5.742;2022-08-11T12:58:56;38.90;28.50
57132;DHT22;43005;52.922;5.742;2022-08-11T13:01:40;39.00;28.40
57132;DHT22;43005;52.922;5.742;2022-08-11T13:04:25;39.70;28.20
57132;DHT22;43005;52.922;5.742;2022-08-11T13:07:10;39.80;27.20
57132;DHT22;43005;52.922;5.742;2022-08-11T13:09:37;39.70;27.60
57132;DHT22;43005;52.922;5.742;2022-08-11T13:12:05;40.00;27.60
57132;DHT22;43005;52.922;5.742;2022-08-11T13:14:49;40.20;27.20
57132;DHT22;43005;52.922;5.742;2022-08-11T13:17:16;40.10;27.00
57132;DHT22;43005;52.922;5.742;2022-08-11T13:19:48;40.20;26.80
57132;DHT22;43005;52.922;5.742;2022-08-11T13:22:19;40.30;26.60
57132;DHT22;43005;52.922;5.742;2022-08-11T13:24:46;40.70;26.70
57132;DHT22;43005;52.922;5.742;2022-08-11T13:27:14;41.10;25.60
57132;DHT22;43005;52.922;5.742;2022-08-11T13:29:42;41.10;26.10
57132;DHT22;43005;52.922;5.742;2022-08-11T13:32:11;40.90;26.20
57132;DHT22;43005;52.922;5.742;2022-08-11T13:34:40;41.10;26.20
57132;DHT22;43005;52.922;5.742;2022-08-11T13:37:09;41.40;25.70
57132;DHT22;43005;52.922;5.742;2022-08-11T13:39:37;41.50;26.00
57132;DHT22;43005;52.922;5.742;2022-08-11T13:42:08;41.50;26.20
57132;DHT22;43005;52.922;5.742;2022-08-11T13:44:37;41.40;25.90
57132;DHT22;43005;52.922;5.742;2022-08-11T13:47:05;41.60;26.00
57132;DHT22;43005;52.922;5.742;2022-08-11T13:49:33;42.10;25.30
57132;DHT22;43005;52.922;5.742;2022-08-11T13:52:01;42.40;25.10
57132;DHT22;43005;52.922;5.742;2022-08-11T13:54:31;42.70;25.00
57132;DHT22;43005;52.922;5.742;2022-08-11T13:57:00;42.80;24.60
57132;DHT22;43005;52.922;5.742;2022-08-11T13:59:27;42.40;24.60
57132;DHT22;43005;52.922;5.742;2022-08-11T14:01:57;42.40;24.70
57132;DHT22;43005;52.922;5.742;2022-08-11T14:04:27;42.80;24.70
57132;DHT22;43005;52.922;5.742;2022-08-11T14:06:57;43.30;24.80
57132;DHT22;43005;52.922;5.742;2022-08-11T14:09:26;43.20;23.90
57132;DHT22;43005;52.922;5.742;2022-08-11T14:11:55;42.80;24.20
57132;DHT22;43005;52.922;5.742;2022-08-11T14:14:40;42.50;24.40
57132;DHT22;43005;52.922;5.742;2022-08-11T14:17:08;42.90;24.60
57132;DHT22;43005;52.922;5.742;2022-08-11T14:19:38;43.30;23.70
57132;DHT22;43005;52.922;5.742;2022-08-11T14:22:05;43.60;24.10
57132;DHT22;43005;52.922;5.742;2022-08-11T14:24:32;44.10;24.20
57132;DHT22;43005;52.922;5.742;2022-08-11T14:27:00;43.60;23.00
57132;DHT22;43005;52.922;5.742;2022-08-11T14:29:27;43.00;23.30
57132;DHT22;43005;52.922;5.742;2022-08-11T14:31:57;42.70;24.20
57132;DHT22;43005;52.922;5.742;2022-08-11T14:34:26;43.00;24.30
57132;DHT22;43005;52.922;5.742;2022-08-11T14:36:55;43.40;23.30
57132;DHT22;43005;52.922;5.742;2022-08-11T14:39:23;43.50;23.50
57132;DHT22;43005;52.922;5.742;2022-08-11T14:41:51;43.30;23.50
57132;DHT22;43005;52.922;5.742;2022-08-11T14:44:38;43.20;23.50
57132;DHT22;43005;52.922;5.742;2022-08-11T14:47:23;43.30;23.60
57132;DHT22;43005;52.922;5.742;2022-08-11T14:49:50;43.40;23.60
57132;DHT22;43005;52.922;5.742;2022-08-11T14:52:18;43.90;23.60
57132;DHT22;43005;52.922;5.742;2022-08-11T14:54:47;44.00;23.30
57132;DHT22;43005;52.922;5.742;2022-08-11T14:57:32;44.20;23.40
57132;DHT22;43005;52.922;5.742;2022-08-11T15:00:03;44.60;23.00
57132;DHT22;43005;52.922;5.742;2022-08-11T15:02:31;44.30;23.10
57132;DHT22;43005;52.922;5.742;2022-08-11T15:05:16;44.30;23.20
57132;DHT22;43005;52.922;5.742;2022-08-11T15:07:44;43.80;23.40
57132;DHT22;43005;52.922;5.742;2022-08-11T15:10:11;43.20;23.60
57132;DHT22;43005;52.922;5.742;2022-08-11T15:12:38;42.80;23.70
57132;DHT22;43005;52.922;5.742;2022-08-11T15:15:08;42.40;24.20
57132;DHT22;43005;52.922;5.742;2022-08-11T15:17:53;41.70;24.00
57132;DHT22;43005;52.922;5.742;2022-08-11T15:20:20;40.30;24.70
57132;DHT22;43005;52.922;5.742;2022-08-11T15:23:04;39.20;26.30
57132;DHT22;43005;52.922;5.742;2022-08-11T15:25:55;38.20;27.50
57132;DHT22;43005;52.922;5.742;2022-08-11T15:28:22;37.20;28.70
57132;DHT22;43005;52.922;5.742;2022-08-11T15:31:08;36.10;29.80
57132;DHT22;43005;52.922;5.742;2022-08-11T15:34:02;35.00;31.50
57132;DHT22;43005;52.922;5.742;2022-08-11T15:36:47;34.20;34.30
57132;DHT22;43005;52.922;5.742;2022-08-11T15:39:33;33.60;35.00
57132;DHT22;43005;52.922;5.742;2022-08-11T15:42:02;33.00;36.00
57132;DHT22;43005;52.922;5.742;2022-08-11T15:44:49;32.60;36.50
57132;DHT22;43005;52.922;5.742;2022-08-11T15:47:36;32.40;37.40
57132;DHT22;43005;52.922;5.742;2022-08-11T15:50:03;32.30;38.30
57132;DHT22;43005;52.922;5.742;2022-08-11T15:52:33;32.00;38.40
57132;DHT22;43005;52.922;5.742;2022-08-11T15:55:04;32.00;39.50
57132;DHT22;43005;52.922;5.742;2022-08-11T15:57:31;31.80;39.50
57132;DHT22;43005;52.922;5.742;2022-08-11T16:00:16;31.60;40.10
57132;DHT22;43005;52.922;5.742;2022-08-11T16:03:02;31.40;40.70
57132;DHT22;43005;52.922;5.742;2022-08-11T16:05:47;31.30;41.10
57132;DHT22;43005;52.922;5.742;2022-08-11T16:08:15;31.00;41.60
57132;DHT22;43005;52.922;5.742;2022-08-11T16:10:42;30.80;42.80
57132;DHT22;43005;52.922;5.742;2022-08-11T16:13:09;30.60;42.90
57132;DHT22;43005;52.922;5.742;2022-08-11T16:15:55;30.30;44.10
57132;DHT22;43005;52.922;5.742;2022-08-11T16:18:44;30.10;44.20
57132;DHT22;43005;52.922;5.742;2022-08-11T16:21:12;30.00;44.50
57132;DHT22;43005;52.922;5.742;2022-08-11T16:23:39;29.90;44.60
57132;DHT22;43005;52.922;5.742;2022-08-11T16:26:08;29.80;45.20
57132;DHT22;43005;52.922;5.742;2022-08-11T16:28:36;29.80;45.00
57132;DHT22;43005;52.922;5.742;2022-08-11T16:31:03;29.70;45.20
57132;DHT22;43005;52.922;5.742;2022-08-11T16:33:35;29.70;45.20
57132;DHT22;43005;52.922;5.742;2022-08-11T16:36:04;29.60;45.30
57132;DHT22;43005;52.922;5.742;2022-08-11T16:38:48;29.50;45.60
57132;DHT22;43005;52.922;5.742;2022-08-11T16:41:16;29.40;45.80
57132;DHT22;43005;52.922;5.742;2022-08-11T16:44:04;29.50;46.50
57132;DHT22;43005;52.922;5.742;2022-08-11T16:46:51;29.50;46.30
57132;DHT22;43005;52.922;5.742;2022-08-11T16:49:25;29.40;46.50
57132;DHT22;43005;52.922;5.742;2022-08-11T16:51:54;29.30;46.70
57132;DHT22;43005;52.922;5.742;2022-08-11T16:54:20;29.10;46.80
57132;DHT22;43005;52.922;5.742;2022-08-11T16:56:48;29.10;46.80
57132;DHT22;43005;52.922;5.742;2022-08-11T16:59:16;29.00;46.90
57132;DHT22;43005;52.922;5.742;2022-08-11T17:01:50;28.90;47.00
57132;DHT22;43005;52.922;5.742;2022-08-11T17:04:19;28.80;47.20
57132;DHT22;43005;52.922;5.742;2022-08-11T17:07:05;28.60;47.20
57132;DHT22;43005;52.922;5.742;2022-08-11T17:09:50;28.60;47.70